Yoder, Wyoming
Current Conditions -  °F | °C
As of 2:53 AM on Tuesday 27 Jan 2015 (Local Time) from KTOR Reporting Station
Clear Clear  
Wind Chill: 32°   Ceiling: Unl
Heat Index: 32°   Visibility: 10mi
Dew Point: 25°   Wind: 3mph
Humidity: 75%   Direction: 90°E
Pressure: 30.08"   Gusts: NA
Location:  41.92°N, 104.3°W
Report Text: KTOR 270953Z AUTO 09003KT 10SM CLR 00/M04 A3008 RMK AO2 SLP173 T00001039 $
Loading
Personal Weather Stations






























Interactive Weather Map New forecast layout! Learn more

10-Day Weather Forecast

Advertisements
Track Severe Weather on mobile